Airfield :
LOGIN :

Register | Disclaimer

   EN    FR    IT 

 










Legend :    VFR   Marginal VFR   IFR   Intensive IFR   Very Intensive IFR
Visi :
Ceiling :
>= 8 km
>= 3000ft
5 to 8 km
1000 to 3000 ft
1500m to 5 km
500 to 1000 ft
800 to 1500m
200 to 500 ft
< 800m
< 200 ft
Symbols :   Thunderstorms  Fog  Heavy snow  Heavy precipitations  Wind > 20 kt
SIGMETs :     Misc.  Thunderstorms  Icing  Turbulence  Mountain Waves  Volcanic Ashes






- Airport Elevation : 1017 ft


LFSL - Brive Souillac

CURRENT METAR :
  • 301230Z AUTO 31004KT 250V360 CAVOK 09/04 Q1018 NOSIG

EXPIRED METARs :
  • 301200Z AUTO 36004KT 310V070 CAVOK 08/04 Q1018 NOSIG
  • 301130Z AUTO 32004KT 290V350 CAVOK 07/04 Q1018 NOSIG
  • 301100Z AUTO 30005KT CAVOK 05/05 Q1018 NOSIG
  • 301030Z AUTO 30003KT 270V350 CAVOK 05/05 Q1019 NOSIG
  • 301000Z AUTO VRB03KT 9999 FEW001 04/04 Q1019 NOSIG

TAF TAF LFSL
Valid from the 30 at 12:00 until the 30 at 21:00 UTC


301100Z 3012/3021 VRB03KT CAVOK
BECMG 3016/3018 02005KT



MET'MAP, your aeronautical weather chart ! - Copyright ORBIFLY December 2007 - Disclaimer

ORBIFLY MET'MAP TEAM :

Programming & Development : Alexandra Zaïnal
Original concept : Baudouin d'Aumeries
Technical & hardware support : Manuel Goepfert
Assistance : Marc-Olivier Méhu




SOURCES & CREDITS :

   NOAA